Glasco, KS

7:35 PM CDT on August 20, 2014 (GMT -0500)
Simpson KS | Change Station
CLOSE
Current Station
Personal Weather Station
Location: Beloit, KS
Elevation: 1342 ft
Nearby Weather Stations

Elev 1342 ft 39.39 °N, 97.94 °W | Updated 27 minutes ago

Clear
Clear
90.9 °F
Feels Like 113 °F
N
11.4
Wind Variable Wind from South

Today
High -- | Low -- °F
--% Chance of Precip.
Yesterday
High -- | Low -- °F
Precip. -- in
6:48 AM 8:19 PM
Waning Crescent, 18% visible
Pressure 29.70 in
Visibility 10.0 miles
Clouds Clear
Heat Index 113 °F
Dew Point 82 °F
Humidity 75%
Rainfall 0.00 in
Snow Depth Not available.
UV 1 out of 12
Pollen 11.00 out of 12
Air Quality Not available.
Flu Activity Not available.
METAR KCNK 202355Z AUTO 17012KT 10SM CLR 32/21 A2975 RMK AO2 SLP057 T03220211 10339 20317 58004

More Conditions Fewer Conditions

Pressure 29.70 in
Visibility 10.0 miles
Clouds Clear
Heat Index 113 °F
Dew Point 82 °F
Humidity 75%
Rainfall 0.00 in
Snow Depth Not available.
UV 1 out of 12
Pollen 11.00 out of 12
Air Quality Not available.
Flu Activity Not available.
METAR KCNK 202355Z AUTO 17012KT 10SM CLR 32/21 A2975 RMK AO2 SLP057 T03220211 10339 20317 58004

More Conditions Fewer Conditions

10-Day Weather Forecast

Almanac

Astronomy

Aug. 20, 2014 Rise Set
Actual Time 6:48 AM CDT 8:19 PM CDT
Civil Twilight 6:20 AM CDT 8:48 PM CDT
Nautical Twilight 5:46 AM CDT 9:22 PM CDT
Astronomical Twilight 5:10 AM CDT 9:58 PM CDT
Moon 2:30 AM CDT (8/20) 5:05 PM CDT (8/20)
Length of Visible Light 14h 27m
Length of Day
13h 31m
Tomorrow will be 2m 21s shorter.
Waning Crescent, 18% of the Moon is Illuminated
Today
Waning Crescent
Aug 25
New
Sep 2
First Quarter
Sep 8
Full
Sep 15
Last Quarter

Today's Extremes

State Highs State Lows

Community

WunderPhotos

Upload Photos

1,745,811 photos uploaded!

WunderBlogs® & News

Nearby

Snow Depth

Station Depth Elevation
No new snow has been reported.

Earthquake Activity

City Distance Mag. Time & Date
No recent earthquake activity has been reported nearby.
Minimum magnitude displayed is 2.5.

Coastal Water Temperatures

Place Temperature
No Stations Reporting

Nearby Weather Stations